createdAt,value
2018-03-01T00:00:02.680Z,-3.02
2018-03-01T00:02:31.777Z,-3.05
2018-03-01T00:05:01.070Z,-2.93
2018-03-01T00:07:30.182Z,-3.02
2018-03-01T00:10:00.074Z,-2.88
2018-03-01T00:12:29.199Z,-2.94
2018-03-01T00:14:58.291Z,-2.80
2018-03-01T00:17:27.413Z,-2.87
2018-03-01T00:19:57.290Z,-3.06
2018-03-01T00:22:37.169Z,-3.07
2018-03-01T00:25:08.061Z,-3.02
2018-03-01T00:27:37.222Z,-3.05
2018-03-01T00:30:06.293Z,-3.13
2018-03-01T00:32:36.183Z,-3.01
2018-03-01T00:35:05.283Z,-3.04
2018-03-01T00:37:34.406Z,-3.11
2018-03-01T00:40:04.266Z,-3.04
2018-03-01T00:42:33.392Z,-3.17
2018-03-01T00:45:02.502Z,-3.19
2018-03-01T00:47:32.391Z,-3.22
2018-03-01T00:50:01.488Z,-3.19
2018-03-01T00:52:32.133Z,-3.25
2018-03-01T00:55:01.221Z,-3.25
2018-03-01T00:57:30.322Z,-3.24
2018-03-01T00:59:59.455Z,-3.18
2018-03-01T01:02:28.558Z,-3.08
2018-03-01T01:04:57.678Z,-3.16
2018-03-01T01:07:26.783Z,-3.16
2018-03-01T01:09:55.898Z,-3.15
2018-03-01T01:12:25.004Z,-3.20
2018-03-01T01:14:54.124Z,-3.18
2018-03-01T01:17:23.982Z,-3.19
2018-03-01T01:19:53.095Z,-3.15
2018-03-01T01:22:22.225Z,-3.16
2018-03-01T01:24:52.086Z,-3.17
2018-03-01T01:27:21.215Z,-3.07
2018-03-01T01:29:50.310Z,-3.23
2018-03-01T01:32:20.211Z,-3.31
2018-03-01T01:34:50.818Z,-3.36
2018-03-01T01:37:19.945Z,-3.36
2018-03-01T01:39:49.043Z,-3.30
2018-03-01T01:42:19.271Z,-3.36
2018-03-01T01:44:48.362Z,-3.34
2018-03-01T01:47:17.498Z,-3.49
2018-03-01T01:49:46.598Z,-3.42
2018-03-01T01:52:15.701Z,-3.43
2018-03-01T01:54:44.814Z,-3.43
2018-03-01T01:57:13.940Z,-3.42
2018-03-01T01:59:43.054Z,-3.41
2018-03-01T02:02:12.941Z,-3.51
2018-03-01T02:04:42.042Z,-3.48
2018-03-01T02:07:11.155Z,-3.50
2018-03-01T02:09:40.281Z,-3.43
2018-03-01T02:12:09.395Z,-3.50
2018-03-01T02:14:38.509Z,-3.62
2018-03-01T02:17:07.597Z,-3.58
2018-03-01T02:19:36.718Z,-3.60
2018-03-01T02:22:05.809Z,-3.56
2018-03-01T02:24:34.914Z,-3.53
2018-03-01T02:27:04.031Z,-3.49
2018-03-01T02:29:33.918Z,-3.43
2018-03-01T02:32:03.021Z,-3.47
2018-03-01T02:34:32.147Z,-3.53
2018-03-01T02:37:02.022Z,-3.55
2018-03-01T02:39:31.110Z,-3.61
2018-03-01T02:42:00.226Z,-3.56
2018-03-01T02:44:29.319Z,-3.57
2018-03-01T02:46:58.458Z,-3.66
2018-03-01T02:49:28.311Z,-3.61
2018-03-01T02:51:57.412Z,-3.49
2018-03-01T02:54:27.271Z,-3.41
2018-03-01T02:56:57.154Z,-3.49
2018-03-01T02:59:26.245Z,-3.46
2018-03-01T03:01:55.358Z,-3.37
2018-03-01T03:04:24.493Z,-3.50
2018-03-01T03:06:53.608Z,-3.47
2018-03-01T03:09:23.489Z,-3.55
2018-03-01T03:11:53.352Z,-3.54
2018-03-01T03:14:22.452Z,-3.63
2018-03-01T03:16:51.559Z,-3.54
2018-03-01T03:19:20.690Z,-3.43
2018-03-01T03:21:50.561Z,-3.51
2018-03-01T03:24:19.669Z,-3.47
2018-03-01T03:26:48.782Z,-3.46
2018-03-01T03:29:17.893Z,-3.37
2018-03-01T03:31:47.798Z,-3.45
2018-03-01T03:34:16.874Z,-3.55
2018-03-01T03:36:45.978Z,-3.56
2018-03-01T03:39:15.087Z,-3.52
2018-03-01T03:41:44.956Z,-3.43
2018-03-01T03:44:14.071Z,-3.46
2018-03-01T03:46:44.693Z,-3.37
2018-03-01T03:49:13.790Z,-3.39
2018-03-01T03:51:42.914Z,-3.43
2018-03-01T03:54:12.791Z,-3.34
2018-03-01T03:56:41.902Z,-3.45
2018-03-01T03:59:11.004Z,-3.48
2018-03-01T04:01:40.130Z,-3.45
2018-03-01T04:04:09.236Z,-3.36
2018-03-01T04:06:38.350Z,-3.35
2018-03-01T04:09:07.454Z,-3.35
2018-03-01T04:11:36.563Z,-3.39
2018-03-01T04:14:05.673Z,-3.33
2018-03-01T04:16:34.794Z,-3.35
2018-03-01T04:19:03.894Z,-3.34
2018-03-01T04:21:32.994Z,-3.43
2018-03-01T04:24:02.869Z,-3.35
2018-03-01T04:26:32.001Z,-3.37
2018-03-01T04:29:01.879Z,-3.34
2018-03-01T04:31:30.967Z,-3.45
2018-03-01T04:34:00.083Z,-3.34
2018-03-01T04:36:29.192Z,-3.27
2018-03-01T04:38:58.309Z,-3.24
2018-03-01T04:41:27.417Z,-3.30
2018-03-01T04:43:56.521Z,-3.32
2018-03-01T04:46:25.639Z,-3.37
2018-03-01T04:48:54.746Z,-3.46
2018-03-01T04:51:23.880Z,-3.40
2018-03-01T04:53:53.755Z,-3.47
2018-03-01T04:56:22.850Z,-3.41
2018-03-01T04:58:51.967Z,-3.37
2018-03-01T05:01:21.080Z,-3.27
2018-03-01T05:03:50.945Z,-3.43
2018-03-01T05:06:20.066Z,-3.37
2018-03-01T05:08:49.146Z,-3.40
2018-03-01T05:11:19.036Z,-3.39
2018-03-01T05:13:48.157Z,-3.17
2018-03-01T05:16:17.264Z,-3.27
2018-03-01T05:18:46.386Z,-3.29
2018-03-01T05:21:15.474Z,-3.29
2018-03-01T05:23:44.595Z,-3.23
2018-03-01T05:26:14.454Z,-3.28
2018-03-01T05:28:43.577Z,-3.37
2018-03-01T05:31:12.678Z,-3.49
2018-03-01T05:33:41.791Z,-3.49
2018-03-01T05:36:11.644Z,-3.40
2018-03-01T05:38:40.754Z,-3.28
2018-03-01T05:41:09.857Z,-3.43
2018-03-01T05:43:38.962Z,-3.37
2018-03-01T05:46:08.075Z,-3.43
2018-03-01T05:48:37.164Z,-3.36
2018-03-01T05:51:06.293Z,-3.19
2018-03-01T05:53:36.145Z,-3.24
2018-03-01T05:56:05.277Z,-3.30
2018-03-01T05:58:35.146Z,-3.43
2018-03-01T06:01:04.277Z,-3.44
2018-03-01T06:03:33.388Z,-3.32
2018-03-01T06:06:02.550Z,-3.26
2018-03-01T06:08:31.641Z,-3.25
2018-03-01T06:11:00.754Z,-3.22
2018-03-01T06:13:31.362Z,-3.26
2018-03-01T06:16:00.474Z,-3.30
2018-03-01T06:18:29.575Z,-3.33
2018-03-01T06:20:58.690Z,-3.28
2018-03-01T06:23:28.652Z,-3.31
2018-03-01T06:25:57.745Z,-3.38
2018-03-01T06:28:26.862Z,-3.32
2018-03-01T06:30:55.943Z,-3.31
2018-03-01T06:33:25.070Z,-3.39
2018-03-01T06:35:54.159Z,-3.35
2018-03-01T06:38:23.297Z,-3.27
2018-03-01T06:40:52.408Z,-3.25
2018-03-01T06:43:22.263Z,-3.18
2018-03-01T06:45:51.380Z,-3.22
2018-03-01T06:48:20.504Z,-3.26
2018-03-01T06:50:50.390Z,-3.15
2018-03-01T06:53:19.487Z,-3.09
2018-03-01T06:55:48.616Z,-3.11
2018-03-01T06:58:18.515Z,-3.12
2018-03-01T07:00:47.617Z,-3.01
2018-03-01T07:03:16.730Z,-2.92
2018-03-01T07:05:45.861Z,-3.05
2018-03-01T07:08:14.932Z,-2.95
2018-03-01T07:10:44.043Z,-3.00
2018-03-01T07:13:13.161Z,-3.07
2018-03-01T07:15:42.262Z,-2.95
2018-03-01T07:18:11.369Z,-3.01
2018-03-01T07:20:40.476Z,-2.93
2018-03-01T07:23:09.602Z,-2.89
2018-03-01T07:25:38.690Z,-2.89
2018-03-01T07:28:07.789Z,-2.78
2018-03-01T07:30:37.670Z,-2.78
2018-03-01T07:33:06.786Z,-2.90
2018-03-01T07:35:35.898Z,-2.85
2018-03-01T07:38:04.983Z,-2.62
2018-03-01T07:40:34.878Z,-2.56
2018-03-01T07:43:03.984Z,-2.47
2018-03-01T07:45:33.885Z,-2.50
2018-03-01T07:48:02.984Z,-2.67
2018-03-01T07:50:32.094Z,-2.56
2018-03-01T07:53:02.032Z,-2.43
2018-03-01T07:55:31.883Z,-2.51
2018-03-01T07:58:00.990Z,-2.44
2018-03-01T08:00:30.079Z,-2.50
2018-03-01T08:02:59.265Z,-2.51
2018-03-01T08:05:29.099Z,-2.41
2018-03-01T08:07:58.958Z,-2.40
2018-03-01T08:10:28.091Z,-2.24
2018-03-01T08:12:57.194Z,-2.20
2018-03-01T08:15:27.095Z,-2.35
2018-03-01T08:17:56.193Z,-2.54
2018-03-01T08:20:25.318Z,-2.43
2018-03-01T08:22:54.417Z,-2.29
2018-03-01T08:25:23.600Z,-2.22
2018-03-01T08:27:52.678Z,-2.41
2018-03-01T08:30:21.802Z,-2.35
2018-03-01T08:32:50.911Z,-2.33
2018-03-01T08:35:20.006Z,-2.43
2018-03-01T08:37:49.105Z,-2.16
2018-03-01T08:40:18.974Z,-2.31
2018-03-01T08:42:48.136Z,-2.16
2018-03-01T08:45:17.208Z,-2.24
2018-03-01T08:47:46.325Z,-2.19
2018-03-01T08:50:16.178Z,-2.07
2018-03-01T08:52:45.274Z,-2.19
2018-03-01T08:55:14.419Z,-2.15
2018-03-01T08:57:43.527Z,-2.16
2018-03-01T09:00:13.405Z,-2.06
2018-03-01T09:02:42.509Z,-2.06
2018-03-01T09:05:11.620Z,-1.99
2018-03-01T09:07:41.481Z,-1.97
2018-03-01T09:10:10.607Z,-1.95
2018-03-01T09:12:39.708Z,-1.81
2018-03-01T09:15:08.842Z,-1.89
2018-03-01T09:17:37.931Z,-1.88
2018-03-01T09:20:07.810Z,-1.65
2018-03-01T09:22:36.906Z,-1.68
2018-03-01T09:25:06.004Z,-1.81
2018-03-01T09:27:35.148Z,-1.97
2018-03-01T09:30:04.249Z,-1.88
2018-03-01T09:32:33.757Z,-1.82
2018-03-01T09:35:02.874Z,-1.78
2018-03-01T09:37:31.997Z,-1.61
2018-03-01T09:40:01.117Z,-1.57
2018-03-01T09:42:30.999Z,-1.55
2018-03-01T09:45:00.124Z,-1.64
2018-03-01T09:47:30.002Z,-1.46
2018-03-01T09:49:59.096Z,-1.55
2018-03-01T09:52:28.230Z,-1.36
2018-03-01T09:54:58.125Z,-1.34
2018-03-01T09:57:27.238Z,-1.29
2018-03-01T09:59:57.126Z,-1.10
2018-03-01T10:02:26.219Z,-1.20
2018-03-01T10:04:55.336Z,-1.17
2018-03-01T10:07:24.471Z,-0.99
2018-03-01T10:09:53.555Z,-0.93
2018-03-01T10:12:22.671Z,-0.99
2018-03-01T10:14:51.774Z,-1.10
2018-03-01T10:17:20.914Z,-0.91
2018-03-01T10:19:50.035Z,-0.96
2018-03-01T10:22:19.921Z,-0.98
2018-03-01T10:24:49.043Z,-0.95
2018-03-01T10:27:18.921Z,-0.89
2018-03-01T10:29:48.023Z,-0.61
2018-03-01T10:32:17.144Z,-0.46
2018-03-01T10:34:47.066Z,-0.43
2018-03-01T10:37:16.949Z,-0.26
2018-03-01T10:39:46.091Z,-0.42
2018-03-01T10:42:15.217Z,-0.46
2018-03-01T10:44:44.331Z,-0.43
2018-03-01T10:47:13.423Z,-0.41
2018-03-01T10:49:42.544Z,-0.28
2018-03-01T10:52:11.651Z,-0.21
2018-03-01T10:54:41.524Z,-0.13
2018-03-01T10:57:10.635Z,0.01
2018-03-01T10:59:39.798Z,0.12
2018-03-01T11:02:09.649Z,0.17
2018-03-01T11:04:38.768Z,0.23
2018-03-01T11:07:07.846Z,0.32
2018-03-01T11:09:36.951Z,0.33
2018-03-01T11:12:06.102Z,0.45
2018-03-01T11:14:35.171Z,0.35
2018-03-01T11:17:04.257Z,0.32
2018-03-01T11:19:34.128Z,0.36
2018-03-01T11:22:03.229Z,0.38
2018-03-01T11:24:32.322Z,0.21
2018-03-01T11:27:01.435Z,0.38
2018-03-01T11:29:30.511Z,0.39
2018-03-01T11:31:59.635Z,0.45
2018-03-01T11:34:28.739Z,0.52
2018-03-01T11:36:58.622Z,0.84
2018-03-01T11:39:27.715Z,0.98
2018-03-01T11:41:56.874Z,1.03
2018-03-01T11:44:25.927Z,1.11
2018-03-01T11:46:55.051Z,1.13
2018-03-01T11:49:24.919Z,1.16
2018-03-01T11:51:54.022Z,0.98
2018-03-01T11:54:23.118Z,1.01
2018-03-01T11:56:52.226Z,1.20
2018-03-01T11:59:21.339Z,1.22
2018-03-01T12:01:51.205Z,1.41
2018-03-01T12:04:20.319Z,1.62
2018-03-01T12:06:49.426Z,1.73
2018-03-01T12:09:18.547Z,1.93
2018-03-01T12:11:48.404Z,1.55
2018-03-01T12:14:17.512Z,1.39
2018-03-01T12:16:46.618Z,1.37
2018-03-01T12:19:15.720Z,1.19
2018-03-01T12:21:44.809Z,1.46
2018-03-01T12:24:13.907Z,1.65
2018-03-01T12:26:43.023Z,1.65
2018-03-01T12:29:12.107Z,1.69
2018-03-01T12:31:41.227Z,1.85
2018-03-01T12:34:11.063Z,2.05
2018-03-01T12:36:40.166Z,1.88
2018-03-01T12:39:09.267Z,1.95
2018-03-01T12:41:38.368Z,1.81
2018-03-01T12:44:07.454Z,1.80
2018-03-01T12:46:36.571Z,1.83
2018-03-01T12:49:05.673Z,1.89
2018-03-01T12:51:34.790Z,1.61
2018-03-01T12:54:03.892Z,1.69
2018-03-01T12:56:33.005Z,1.91
2018-03-01T12:59:02.855Z,2.04
2018-03-01T13:01:31.956Z,2.01
2018-03-01T13:04:01.380Z,2.23
2018-03-01T13:06:30.509Z,2.05
2018-03-01T13:09:00.421Z,2.01
2018-03-01T13:11:30.283Z,2.14
2018-03-01T13:13:59.394Z,1.92
2018-03-01T13:16:28.488Z,1.90
2018-03-01T13:18:57.583Z,1.76
2018-03-01T13:21:26.662Z,1.77
2018-03-01T13:23:55.762Z,1.80
2018-03-01T13:26:24.870Z,1.89
2018-03-01T13:28:53.986Z,1.94
2018-03-01T13:31:23.081Z,1.93
2018-03-01T13:33:53.975Z,2.00
2018-03-01T13:36:23.047Z,1.91
2018-03-01T13:38:52.161Z,2.07
2018-03-01T13:41:21.281Z,2.15
2018-03-01T13:43:50.369Z,2.19
2018-03-01T13:59:40.869Z,2.41
2018-03-01T14:02:09.973Z,2.47
2018-03-01T14:04:39.077Z,2.64
2018-03-01T14:20:56.415Z,2.92
2018-03-01T14:23:31.842Z,3.07
2018-03-01T14:26:04.462Z,3.42
2018-03-01T14:28:36.995Z,3.74
2018-03-01T14:31:06.094Z,3.84
2018-03-01T14:33:35.194Z,4.04
2018-03-01T14:36:04.308Z,4.30
2018-03-01T14:38:34.186Z,5.07
2018-03-01T14:41:03.298Z,6.79
2018-03-01T14:43:32.374Z,5.91
2018-03-01T14:46:01.485Z,4.92
2018-03-01T14:48:30.607Z,4.19
2018-03-01T14:51:00.474Z,3.68
2018-03-01T14:53:29.590Z,3.62
2018-03-01T14:55:59.655Z,3.50
2018-03-01T14:58:29.513Z,3.52
2018-03-01T15:00:58.649Z,3.51
2018-03-01T15:03:28.498Z,3.38
2018-03-01T15:05:57.601Z,3.22
2018-03-01T15:08:26.711Z,3.26
2018-03-01T15:10:55.878Z,3.33
2018-03-01T15:13:24.959Z,3.56
2018-03-01T15:15:54.084Z,3.32
2018-03-01T15:18:23.204Z,3.49
2018-03-01T15:20:52.291Z,3.61
2018-03-01T15:23:21.429Z,3.60
2018-03-01T15:25:50.561Z,3.53
2018-03-01T15:28:19.658Z,3.57
2018-03-01T15:30:48.806Z,3.39
2018-03-01T15:33:19.416Z,3.42
2018-03-01T15:35:48.516Z,3.23
2018-03-01T15:38:17.614Z,3.26
2018-03-01T15:40:46.732Z,3.35
2018-03-01T15:43:16.595Z,3.34
2018-03-01T15:45:45.730Z,3.32
2018-03-01T15:48:14.826Z,3.39
2018-03-01T15:50:43.941Z,3.27
2018-03-01T15:53:13.035Z,3.15
2018-03-01T15:55:42.118Z,3.04
2018-03-01T15:58:11.261Z,3.09
2018-03-01T16:00:40.391Z,3.14
2018-03-01T16:03:09.505Z,3.07
2018-03-01T16:05:38.594Z,3.03
2018-03-01T16:08:07.707Z,2.94
2018-03-01T16:10:36.807Z,2.91
2018-03-01T16:13:06.714Z,2.98
2018-03-01T16:15:35.824Z,3.00
2018-03-01T16:18:05.732Z,3.08
2018-03-01T16:20:34.824Z,2.97
2018-03-01T16:23:03.941Z,2.95
2018-03-01T16:25:33.806Z,2.92
2018-03-01T16:28:02.911Z,2.97
2018-03-01T16:30:32.045Z,2.98
2018-03-01T16:33:01.953Z,3.03
2018-03-01T16:35:31.840Z,2.97
2018-03-01T16:38:00.962Z,2.83
2018-03-01T16:40:30.059Z,2.76
2018-03-01T16:42:59.938Z,2.80
2018-03-01T16:45:29.058Z,2.75
2018-03-01T16:47:58.188Z,2.70
2018-03-01T16:50:27.304Z,2.71
2018-03-01T16:52:56.403Z,2.67
2018-03-01T16:55:25.500Z,2.76
2018-03-01T16:57:54.587Z,2.63
2018-03-01T17:00:23.706Z,2.72
2018-03-01T17:02:52.834Z,2.68
2018-03-01T17:05:21.927Z,2.70
2018-03-01T17:07:51.795Z,2.62
2018-03-01T17:10:20.952Z,2.65
2018-03-01T17:12:50.798Z,2.69
2018-03-01T17:15:19.908Z,2.61
2018-03-01T17:17:48.998Z,2.68
2018-03-01T17:20:18.136Z,2.57
2018-03-01T17:22:47.315Z,2.61
2018-03-01T17:25:16.379Z,2.62
2018-03-01T17:27:46.241Z,2.58
2018-03-01T17:30:15.360Z,2.55
2018-03-01T17:32:45.242Z,2.52
2018-03-01T17:35:14.360Z,2.49
2018-03-01T17:37:43.482Z,2.48
2018-03-01T17:40:12.590Z,2.48
2018-03-01T17:42:41.674Z,2.58
2018-03-01T17:45:10.819Z,2.46
2018-03-01T17:47:40.625Z,2.40
2018-03-01T17:50:09.738Z,2.45
2018-03-01T17:52:38.842Z,2.35
2018-03-01T17:55:08.724Z,2.39
2018-03-01T17:57:37.833Z,2.34
2018-03-01T18:00:06.930Z,2.36
2018-03-01T18:02:36.048Z,2.36
2018-03-01T18:05:05.142Z,2.32
2018-03-01T18:07:34.299Z,2.36
2018-03-01T18:10:04.161Z,2.35
2018-03-01T18:12:34.054Z,2.35
2018-03-01T18:15:03.161Z,2.34
2018-03-01T18:17:32.266Z,2.37
2018-03-01T18:20:01.369Z,2.36
2018-03-01T18:22:31.236Z,2.22
2018-03-01T18:25:00.347Z,2.29
2018-03-01T18:27:29.465Z,2.33
2018-03-01T18:29:58.571Z,2.34
2018-03-01T18:32:28.475Z,2.38
2018-03-01T18:34:57.572Z,2.44
2018-03-01T18:37:27.456Z,2.40
2018-03-01T18:39:56.582Z,2.37
2018-03-01T18:42:26.438Z,2.36
2018-03-01T18:44:55.533Z,2.28
2018-03-01T18:47:25.419Z,2.37
2018-03-01T18:49:55.284Z,2.35
2018-03-01T18:52:24.410Z,2.37
2018-03-01T18:54:55.011Z,2.25
2018-03-01T18:57:24.135Z,2.30
2018-03-01T18:59:54.060Z,2.16
2018-03-01T19:02:23.160Z,2.18
2018-03-01T19:04:53.045Z,2.26
2018-03-01T19:07:22.188Z,2.20
2018-03-01T19:09:52.065Z,2.16
2018-03-01T19:12:21.187Z,2.16
2018-03-01T19:14:51.037Z,2.12
2018-03-01T19:17:20.162Z,2.14
2018-03-01T19:19:49.280Z,2.21
2018-03-01T19:22:18.428Z,2.17
2018-03-01T19:24:47.538Z,2.23
2018-03-01T19:27:16.642Z,2.05
2018-03-01T19:29:45.793Z,2.06
2018-03-01T19:32:15.668Z,2.02
2018-03-01T19:34:46.317Z,1.99
2018-03-01T19:37:15.392Z,2.01
2018-03-01T19:39:44.546Z,1.97
2018-03-01T19:42:14.412Z,2.12
2018-03-01T19:44:43.507Z,2.05
2018-03-01T19:47:12.607Z,2.04
2018-03-01T19:49:42.495Z,2.11
2018-03-01T19:52:11.611Z,1.98
2018-03-01T19:54:40.757Z,1.95
2018-03-01T19:57:09.860Z,2.03
2018-03-01T19:59:38.954Z,1.91
2018-03-01T20:02:08.090Z,1.91
2018-03-01T20:04:37.194Z,1.86
2018-03-01T20:07:06.329Z,1.82
2018-03-01T20:09:35.417Z,1.71
2018-03-01T20:12:05.267Z,1.77
2018-03-01T20:14:34.417Z,1.70
2018-03-01T20:17:04.296Z,1.77
2018-03-01T20:19:33.420Z,1.76
2018-03-01T20:22:02.517Z,1.86
2018-03-01T20:24:32.406Z,1.68
2018-03-01T20:27:01.478Z,1.67
2018-03-01T20:29:30.626Z,1.66
2018-03-01T20:32:00.503Z,1.51
2018-03-01T20:34:29.633Z,1.55
2018-03-01T20:36:58.724Z,1.55
2018-03-01T20:39:27.884Z,1.47
2018-03-01T20:41:56.969Z,1.54
2018-03-01T20:44:26.115Z,1.50
2018-03-01T20:46:55.249Z,1.50
2018-03-01T20:49:24.416Z,1.42
2018-03-01T20:51:53.573Z,1.39
2018-03-01T20:54:22.671Z,1.40
2018-03-01T20:56:51.788Z,1.49
2018-03-01T20:59:20.884Z,1.46
2018-03-01T21:01:50.050Z,1.50
2018-03-01T21:04:19.149Z,1.47
2018-03-01T21:06:48.268Z,1.47
2018-03-01T21:09:17.394Z,1.48
2018-03-01T21:11:47.296Z,1.40
2018-03-01T21:14:17.174Z,1.47
2018-03-01T21:16:46.318Z,1.49
2018-03-01T21:19:16.177Z,1.43
2018-03-01T21:21:45.323Z,1.48
2018-03-01T21:24:15.205Z,1.40
2018-03-01T21:26:44.327Z,1.36
2018-03-01T21:29:13.446Z,1.36
2018-03-01T21:31:42.575Z,1.30
2018-03-01T21:34:11.696Z,1.18
2018-03-01T21:36:40.821Z,1.25
2018-03-01T21:39:10.722Z,1.20
2018-03-01T21:41:39.840Z,1.28
2018-03-01T21:44:09.718Z,1.23
2018-03-01T21:46:38.822Z,1.21
2018-03-01T21:49:07.950Z,1.30
2018-03-01T21:51:37.048Z,1.23
2018-03-01T21:54:06.927Z,1.08
2018-03-01T21:56:36.035Z,1.18
2018-03-01T21:59:05.899Z,1.15
2018-03-01T22:01:35.050Z,1.20
2018-03-01T22:04:04.146Z,1.20
2018-03-01T22:06:34.012Z,1.11
2018-03-01T22:09:03.108Z,1.13
2018-03-01T22:11:32.266Z,1.11
2018-03-01T22:14:02.144Z,0.97
2018-03-01T22:16:31.235Z,1.03
2018-03-01T22:19:00.346Z,1.06
2018-03-01T22:21:29.452Z,1.01
2018-03-01T22:23:58.572Z,0.98
2018-03-01T22:26:27.685Z,0.99
2018-03-01T22:28:58.630Z,0.99
2018-03-01T22:31:27.734Z,0.99
2018-03-01T22:33:56.843Z,0.97
2018-03-01T22:36:25.937Z,0.94
2018-03-01T22:38:55.043Z,0.92
2018-03-01T22:41:24.137Z,1.07
2018-03-01T22:43:53.260Z,1.02
2018-03-01T22:46:22.373Z,1.05
2018-03-01T22:48:52.225Z,1.04
2018-03-01T22:51:21.356Z,1.03
2018-03-01T22:53:50.452Z,1.00
2018-03-01T22:56:19.563Z,1.07
2018-03-01T22:58:49.429Z,1.09
2018-03-01T23:01:18.780Z,1.12
2018-03-01T23:03:47.864Z,1.02
2018-03-01T23:06:16.993Z,1.00
2018-03-01T23:08:47.291Z,1.01
2018-03-01T23:11:16.643Z,1.03
2018-03-01T23:13:45.802Z,1.06
2018-03-01T23:16:15.739Z,0.99
2018-03-01T23:18:44.858Z,0.98
2018-03-01T23:21:13.956Z,0.89
2018-03-01T23:23:43.062Z,0.97
2018-03-01T23:26:12.167Z,0.92
2018-03-01T23:28:41.284Z,0.95
2018-03-01T23:31:11.193Z,0.88
2018-03-01T23:33:40.308Z,0.83
2018-03-01T23:36:09.444Z,0.91
2018-03-01T23:38:38.579Z,0.95
2018-03-01T23:41:07.674Z,0.92
2018-03-01T23:43:36.761Z,0.88
2018-03-01T23:46:05.882Z,0.92
2018-03-01T23:48:35.746Z,0.88
2018-03-01T23:51:04.849Z,0.87
2018-03-01T23:53:33.960Z,0.80
2018-03-01T23:56:03.053Z,0.79
2018-03-01T23:58:32.170Z,0.75
